Effective Sunday, March 17, 2024, the National Weather Service National Data Buoy Center will discontinue its Dial-A-Buoy Interactive Voice Response system. For more information, see Service Change Notice 24-06 (PDF).

Station KOZA2 - KOTZEBUE MXAK, AK Image indicating link to RSS feed of recent meteorological observations for station KOZA2


Conditions at KOZA2 as of
1144 GMT on 03/03/2024:
     

Click on the graph icon in the table below to see a time series plot of the last five days of that observation.

5-day plot - Wind Direction Wind Direction (WDIR):ESE ( 110 deg true )
5-day plot - Wind Speed Wind Speed (WSPD): 19 kts
5-day plot - Wind Gust Wind Gust (GST): 29 kts
5-day plot - Atmospheric Pressure Atmospheric Pressure (PRES):29.81 in
5-day plot - Air Temperature Air Temperature (ATMP): 2.8 °F
5-day plot - Dew Point Dew Point (DEWP): -2.7 °F
5-day plot - Wind Chill Wind Chill (CHILL):-19.1 °F
5-day plot - Wind Speed at 10 Meters Wind Speed at 10 meters (WSPD10M): 17 kts
5-day plot - Wind Speed at 20 Meters Wind Speed at 20 meters (WSPD20M): 19 kts
5-day plot -  Wind Speed, Wind Gust and Atmospheric Pressure Combined plot of Wind Speed, Gust, and Air Pressure
Previous observations
TIME
(GMT)
5-day plot - Wind Direction
WDIR
 
5-day plot - Wind Speed
WSPD
kts
5-day plot - Wind Gust
GST
kts
5-day plot - Wave Height
WVHT
ft
5-day plot - Dominant Wave Period
DPD
sec
5-day plot - Average Wave Period
APD
sec
5-day plot - Mean Wave Direction
MWD
 
5-day plot - Atmospheric Pressure
PRES
in
5-day plot - Pressure Tendency
PTDY
in
5-day plot - Air Temperature
ATMP
°F
5-day plot - Water Temperature
WTMP
°F
5-day plot - Dew Point
DEWP
°F
5-day plot - Salinity
SAL
psu
5-day plot - Visibility
VIS
nmi
5-day plot - Tide (above MLLW)
TIDE
ft
2024-03-03 1134 E 18 27----29.82- 2.5- -2.7---
2024-03-03 1124 E 20 28----29.83- 2.3- -2.6---
2024-03-03 1114 E 19 30----29.84- 2.3- -2.6---
2024-03-03 1104ESE 18 31----29.85- 2.3- -2.6---
2024-03-03 1054ESE 18 30----29.85- 2.5- -2.6---
2024-03-03 1034 E 20 29----29.86- 2.7- -2.7---
2024-03-03 1024ESE 18 28----29.87- 2.7- -2.9---
2024-03-03 1014ESE 18 28----29.87- 2.5- -3.3---
2024-03-03 1004 E 20 29----29.88- 2.1- -3.6---
2024-03-03 0944 E 18 25----29.90- 1.9- -4.2---
2024-03-03 0934 E 19 29----29.90- 1.6- -4.2---
2024-03-03 0924 E 21 31----29.90- 1.4- -4.0---
2024-03-03 0914 E 24 33----29.90- 1.2- -4.0---
2024-03-03 0904 E 23 33----29.90- 1.2- -3.8---
2024-03-03 0854 E 24 33----29.90- 1.4- -3.5---
2024-03-03 0844 E 23 32----29.91- 1.2- -3.6---
2024-03-03 0834 E 23 31----29.91- 1.4- -4.0---
2024-03-03 0824 E 23 33----29.91- 1.2- -4.2---
2024-03-03 0814 E 24 33----29.92- 1.2- -4.4---
2024-03-03 0804 E 23 34----29.93- 1.0- -4.5---
2024-03-03 0754 E 22 30----29.95- 1.0- -4.7---
2024-03-03 0744 E 22 30----29.96- 1.4- -5.1---
2024-03-03 0734 E 21 30----29.96- 1.2- -5.3---
2024-03-03 0724 E 17 29----29.97- 1.0- -5.3---
2024-03-03 0714 E 16 24----29.98- 0.9- -5.1---
2024-03-03 0704 E 20 30----29.98- 0.9- -5.3---
2024-03-03 0654 E 21 29----29.98- 0.9- -5.1---
2024-03-03 0644 E 21 29----29.98- 1.0- -5.1---
2024-03-03 0634 E 20 26----29.98- 1.2- -5.6---
2024-03-03 0624 E 19 26----29.99- 1.0- -5.6---
2024-03-03 0614 E 17 25----30.00- 0.7- -5.8---
2024-03-03 0604 E 17 25----30.00- 0.7- -6.3---
2024-03-03 0554 E 19 26----30.00- 0.3- -6.5---
2024-03-03 0544 E 17 24----30.01- 0.3- -6.3---
2024-03-03 0534 E 18 25----30.02- 0.3- -6.3---
2024-03-03 0524 E 21 28----30.02- 0.5- -6.3---
2024-03-03 0514 E 20 27----30.02- 0.3- -6.7---
2024-03-03 0504 E 19 27----30.03- 0.3- -6.7---
2024-03-03 0454 E 15 24----30.03- 0.1- -7.1---
2024-03-03 0444 E 17 24----30.04- 0.1- -7.4---
2024-03-03 0434 E 17 23----30.04- -0.0- -7.6---
2024-03-03 0424 E 18 24----30.05- -0.2- -8.0---
2024-03-03 0414 E 16 23----30.06- -0.2- -8.3---
2024-03-03 0404 E 14 20----30.07- -0.4- -8.5---
2024-03-03 0354 E 13 20----30.07- -0.4- -8.3---
2024-03-03 0344ESE 12 19----30.07- -0.2- -8.3---
2024-03-03 0334ESE 10 19----30.08- -0.6- -8.1---
2024-03-03 0324ESE 12 19----30.08- -0.6- -8.7---
2024-03-03 0314 E 14 22----30.08- -0.6- -8.7---
2024-03-03 0304ESE 12 19----30.09- -0.8- -8.9---
2024-03-03 0254 E 15 22----30.09- -0.8- -9.0---
2024-03-03 0244ESE 13 21----30.10- -1.3- -8.9---
2024-03-03 0234ESE 13 20----30.10- -1.1- -9.0---
2024-03-03 0224ESE 13 22----30.10- -1.5- -9.0---
2024-03-03 0214ESE 13 19----30.11- -1.7- -9.6---
2024-03-03 0204ESE 12 20----30.11- -2.2- -9.4---
2024-03-03 0154ESE 13 20----30.11- -2.4- -9.6---
2024-03-03 0134ESE 13 24----30.12- -2.2- -9.9---
2024-03-03 0124ESE 12 19----30.13- -2.4--10.5---
2024-03-03 0114ESE 10 17----30.15- -2.4--10.8---
2024-03-03 0104 E 8 14----30.16- -2.6--11.2---
2024-03-03 0044ESE 7 13----30.17- -3.5--11.2---
2024-03-03 0034ESE 9 14----30.18- -4.0--11.9---
2024-03-03 0024ESE 9 14----30.19- -4.2--11.9---
2024-03-03 0014 E 9 14----30.19- -4.0--12.1---
2024-03-02 2354ESE 9 14----30.20- -4.7--12.6---
2024-03-02 2344ESE 8 14----30.20- -4.7--12.8---
2024-03-02 2334 E 9 15----30.21- -4.7--13.2---
2024-03-02 2324 E 8 13----30.22- -5.1--13.4---
2024-03-02 2314 E 9 13----30.22- -5.4--13.7---
2024-03-02 2304 E 9 14----30.22- -6.2--14.1---
2024-03-02 2254 E 10 15----30.22- -6.2--14.1---
2024-03-02 2244ESE 8 14----30.22- -6.5--14.3---
2024-03-02 2234 E 12 17----30.22- -7.1--15.2---
2024-03-02 2224 E 14 20----30.23- -7.2--15.3---
2024-03-02 2214 E 13 19----30.23- -7.8--15.9---
2024-03-02 2204 E 12 18----30.24- -8.1--16.2---
2024-03-02 2154 E 12 20----30.24- -8.5--16.4---
2024-03-02 2144 E 11 19----30.24- -8.9--16.8---
2024-03-02 2134 E 10 16----30.25--10.1--17.9---
2024-03-02 2124 E 10 16----30.25--10.3--18.0---
2024-03-02 2114 E 11 18----30.25--10.7--18.2---
2024-03-02 2104 E 12 17----30.26--11.6--18.9---
2024-03-02 2054ESE 12 18----30.26--12.3--19.8---
2024-03-02 2044ESE 12 22----30.27--12.6--20.0---
2024-03-02 2034ESE 12 20----30.27--13.4--20.6---
2024-03-02 2024 SE 12 19----30.28--13.7--21.1---
2024-03-02 2014 SE 11 17----30.28--13.7--21.1---
2024-03-02 2004 SE 12 20----30.28--13.2--20.9---
2024-03-02 1954 SE 13 21----30.28--13.5--21.1---
2024-03-02 1944 SE 12 19----30.28--14.6--22.0---
2024-03-02 1934ESE 11 18----30.28--15.3--22.5---
2024-03-02 1924 SE 8 16----30.29--16.1--23.1---
2024-03-02 1914ESE 7 12----30.29--15.9--23.1---
2024-03-02 1904 E 9 14----30.29--15.7--23.1---
2024-03-02 1854ESE 8 13----30.29--15.0--22.2---
2024-03-02 1844 E 8 14----30.29--14.8--22.2---
2024-03-02 1834 E 11 16----30.29--15.7--22.9---
2024-03-02 1824 E 11 16----30.29--16.2--23.6---
2024-03-02 1814 E 11 18----30.29--16.2--23.6---
2024-03-02 1804 E 13 21----30.29--16.8--24.2---
2024-03-02 1754 E 11 20----30.29--17.5--24.7---
2024-03-02 1744 E 11 18----30.29--18.4--25.2---
2024-03-02 1734 E 8 14----30.30--19.1--26.0---
2024-03-02 1724ENE 4 8----30.32--19.7--26.3---
2024-03-02 1714 E 6 10----30.32--20.2--26.7---
2024-03-02 1704 E 7 11----30.34--20.0--26.7---
2024-03-02 1654 E 3 9----30.34--20.0--26.5---
2024-03-02 1644 E 4 8----30.34--20.6--27.2---
2024-03-02 1634ENE 5 11----30.34--20.7--27.4---
2024-03-02 1624 E 5 10----30.34--20.9--27.4---
2024-03-02 1614 E 6 9----30.35--20.9--27.4---
2024-03-02 1604 E 6 8----30.36--20.9--27.6---
2024-03-02 1554 E 7 10----30.36--20.6--27.4---
2024-03-02 1544 E 9 14----30.36--20.0--26.5---
2024-03-02 1534ESE 6 10----30.37--20.0--26.3---
2024-03-02 1524ESE 5 8----30.37--20.6--27.0---
2024-03-02 1514 E 4 7----30.37--21.1--27.6---
2024-03-02 1504 E 7 11----30.36--21.5--27.9---
2024-03-02 1454 E 8 11----30.36--21.3--27.8---
2024-03-02 1444 E 9 13----30.37--20.7--27.2---
2024-03-02 1434 E 8 12----30.37--20.2--26.5---
2024-03-02 1424 E 8 10----30.38--20.0--26.5---
2024-03-02 1414 E 8 12----30.38--19.8--26.1---
2024-03-02 1404ESE 8 12----30.38--19.3--25.6---
2024-03-02 1354 E 8 11----30.38--19.7--25.8---
2024-03-02 1344 E 9 12----30.38--19.5--25.6---
2024-03-02 1334 E 11 15----30.38--18.9--24.9---
2024-03-02 1324 E 11 15----30.38--18.6--24.2---
2024-03-02 1314 E 10 14----30.38--18.4--24.0---
2024-03-02 1304 E 12 19----30.38--18.0--23.6---
2024-03-02 1254 E 11 20----30.38--18.9--24.5---
2024-03-02 1244 E 9 14----30.39--20.0--25.8---
2024-03-02 1234ESE 8 12----30.40--20.9--26.7---
2024-03-02 1224 E 8 11----30.40--20.7--26.5---
2024-03-02 1214ESE 7 10----30.42--19.8--25.6---
2024-03-02 1204ESE 7 11----30.42--19.5--25.1---
2024-03-02 1154 E 10 15----30.42--19.3--24.9---